Time;durP1;ratioP1;P1;durP2;ratioP2;P2;SDS_P1;SDS_P2;PMS_P1;PMS_P2;Temp;Humidity;BMP_temperature;BMP_pressure;BME280_temperature;BME280_humidity;BME280_pressure;Samples;Min_cycle;Max_cycle;Signal;HPM_P1;HPM_P2
2022/06/21 00:00:48;;;;;;;11.68;6.75;;;12.80;99.90;;;;;;5099347;28;20052;-78
2022/06/21 00:03:24;;;;;;;11.10;5.95;;;12.90;99.90;;;;;;5099727;28;20071;-78
2022/06/21 00:05:51;;;;;;;11.52;6.13;;;12.80;99.90;;;;;;5099084;28;20043;-79
2022/06/21 00:08:49;;;;;;;9.02;6.65;;;12.80;99.90;;;;;;5098285;28;20050;-78
2022/06/21 00:11:34;;;;;;;14.93;6.95;;;13.10;99.90;;;;;;5099967;28;20020;-77
2022/06/21 00:14:00;;;;;;;10.80;6.63;;;12.70;99.90;;;;;;5098304;28;20052;-77
2022/06/21 00:16:28;;;;;;;10.10;6.32;;;12.70;99.90;;;;;;5098925;28;20020;-79
2022/06/21 00:18:54;;;;;;;15.50;7.90;;;12.70;99.90;;;;;;5097251;28;20054;-77
2022/06/21 00:21:26;;;;;;;12.93;7.35;;;12.60;99.90;;;;;;5097503;28;20063;-79
2022/06/21 00:23:54;;;;;;;11.25;7.90;;;12.60;99.90;;;;;;5096555;28;20028;-78
2022/06/21 00:26:22;;;;;;;8.45;6.85;;;12.60;99.90;;;;;;5099179;28;20059;-77
2022/06/21 00:28:48;;;;;;;14.48;7.32;;;12.60;99.90;;;;;;5097859;28;20028;-79
2022/06/21 00:31:27;;;;;;;12.77;7.13;;;12.60;99.90;;;;;;5096474;28;20024;-79
2022/06/21 00:33:53;;;;;;;6.63;5.93;;;12.60;99.90;;;;;;5097243;28;20073;-80
2022/06/21 00:36:23;;;;;;;9.15;6.63;;;12.60;99.90;;;;;;5096542;28;20024;-79
2022/06/21 00:38:50;;;;;;;7.18;6.25;;;12.50;99.90;;;;;;5095320;28;20391;-77
2022/06/21 00:41:19;;;;;;;8.88;6.55;;;12.50;99.90;;;;;;5096868;28;20464;-78
2022/06/21 00:43:50;;;;;;;7.53;6.60;;;12.50;99.90;;;;;;5097446;28;20021;-79
2022/06/21 00:46:46;;;;;;;8.25;7.43;;;12.50;99.90;;;;;;5096799;28;20028;-78
2022/06/21 00:49:18;;;;;;;11.05;7.78;;;12.40;99.90;;;;;;5085470;28;20040;-78
2022/06/21 00:51:44;;;;;;;14.77;6.93;;;12.40;99.90;;;;;;5096380;28;20532;-77
2022/06/21 00:54:23;;;;;;;10.15;7.60;;;12.40;99.90;;;;;;5099221;28;20052;-78
2022/06/21 00:57:02;;;;;;;14.60;7.53;;;12.40;99.90;;;;;;5097069;28;20039;-79
2022/06/21 00:59:31;;;;;;;11.15;7.47;;;12.40;99.90;;;;;;5097444;28;20024;-80
2022/06/21 01:02:00;;;;;;;15.13;8.27;;;12.40;99.90;;;;;;5096841;28;20093;-78
2022/06/21 01:04:39;;;;;;;12.23;8.63;;;12.30;99.90;;;;;;5096926;28;20028;-78
2022/06/21 01:07:08;;;;;;;15.55;8.65;;;12.30;99.90;;;;;;5096107;28;20039;-78
2022/06/21 01:09:48;;;;;;;15.40;8.93;;;12.30;99.90;;;;;;5097341;28;20035;-77
2022/06/21 01:12:20;;;;;;;11.60;8.05;;;12.30;99.90;;;;;;5096497;28;20045;-77
2022/06/21 01:14:57;;;;;;;9.38;8.15;;;12.30;99.90;;;;;;5096479;28;20069;-79
2022/06/21 01:17:25;;;;;;;11.40;7.35;;;12.30;99.90;;;;;;5098764;28;20028;-79
2022/06/21 01:19:58;;;;;;;11.23;7.82;;;12.30;99.90;;;;;;5095429;28;20058;-78
2022/06/21 01:22:49;;;;;;;12.75;8.10;;;12.30;99.90;;;;;;5096293;28;20031;-77
2022/06/21 01:25:20;;;;;;;8.75;7.85;;;12.30;99.90;;;;;;5096564;28;20032;-80
2022/06/21 01:27:46;;;;;;;13.20;7.40;;;12.20;99.90;;;;;;5098077;28;20055;-78
2022/06/21 01:30:12;;;;;;;11.98;8.45;;;12.20;99.90;;;;;;5095989;28;20081;-77
2022/06/21 01:32:38;;;;;;;8.32;7.50;;;12.20;99.90;;;;;;5095892;28;20020;-77
2022/06/21 01:35:16;;;;;;;9.98;8.23;;;12.20;99.90;;;;;;5094939;28;20032;-78
2022/06/21 01:37:42;;;;;;;14.05;8.15;;;12.20;99.90;;;;;;5096248;28;20054;-78
2022/06/21 01:40:25;;;;;;;8.77;7.55;;;12.20;99.90;;;;;;5097336;28;20367;-78
2022/06/21 01:42:54;;;;;;;9.45;7.68;;;12.10;99.90;;;;;;5095585;28;20039;-79
2022/06/21 01:45:26;;;;;;;12.10;8.20;;;12.10;99.90;;;;;;5095259;28;20490;-78
2022/06/21 01:47:58;;;;;;;10.25;7.78;;;12.10;99.90;;;;;;5095054;28;20036;-78
2022/06/21 01:50:23;;;;;;;10.23;7.30;;;12.10;99.90;;;;;;5094299;28;20024;-77
2022/06/21 01:52:52;;;;;;;11.52;7.22;;;12.00;99.90;;;;;;5094938;28;20035;-77
2022/06/21 01:55:45;;;;;;;11.45;8.25;;;12.10;99.90;;;;;;5096948;28;20032;-78
2022/06/21 01:58:17;;;;;;;10.80;7.47;;;12.10;99.90;;;;;;5083254;28;20135;-78
2022/06/21 02:00:49;;;;;;;10.82;8.43;;;12.10;99.90;;;;;;5093855;28;20530;-78
2022/06/21 02:03:19;;;;;;;10.73;8.20;;;12.00;99.90;;;;;;5096471;28;20031;-76
2022/06/21 02:05:49;;;;;;;10.75;8.00;;;12.10;99.90;;;;;;5094159;28;20036;-78
2022/06/21 02:08:19;;;;;;;11.60;7.27;;;12.10;99.90;;;;;;5094492;28;20498;-78
2022/06/21 02:10:53;;;;;;;10.23;7.60;;;12.00;99.90;;;;;;5093824;28;20258;-78
2022/06/21 02:13:32;;;;;;;12.50;8.13;;;12.10;99.90;;;;;;5094444;28;20039;-77
2022/06/21 02:16:19;;;;;;;14.13;8.15;;;12.00;99.90;;;;;;5094516;28;20034;-79
2022/06/21 02:18:49;;;;;;;9.88;7.78;;;12.00;99.90;;;;;;5094516;28;20059;-79
2022/06/21 02:21:22;;;;;;;10.23;9.05;;;12.00;99.90;;;;;;5094347;28;20032;-78
2022/06/21 02:23:51;;;;;;;11.27;9.48;;;12.00;99.90;;;;;;5093726;28;20058;-79
2022/06/21 02:26:17;;;;;;;11.65;8.98;;;12.00;99.90;;;;;;5094416;28;20032;-77
2022/06/21 02:28:43;;;;;;;10.32;8.68;;;12.00;99.90;;;;;;5094302;28;20103;-78
2022/06/21 02:31:10;;;;;;;15.27;10.13;;;11.90;99.90;;;;;;5093930;28;20108;-77
2022/06/21 02:33:37;;;;;;;14.57;10.02;;;12.00;99.90;;;;;;5094352;28;20016;-77
2022/06/21 02:36:15;;;;;;;17.05;10.80;;;12.00;99.90;;;;;;5094060;28;20020;-77
2022/06/21 02:38:54;;;;;;;16.67;10.80;;;12.10;99.90;;;;;;5093335;28;20028;-78
2022/06/21 02:41:39;;;;;;;15.43;10.48;;;12.00;99.90;;;;;;5094550;28;20048;-78
2022/06/21 02:44:28;;;;;;;15.93;10.85;;;12.00;99.90;;;;;;5093932;28;20421;-78
2022/06/21 02:46:59;;;;;;;17.17;10.75;;;12.00;99.90;;;;;;5094120;28;20036;-78
2022/06/21 02:49:37;;;;;;;17.60;10.35;;;12.00;99.90;;;;;;5095507;28;20035;-79
2022/06/21 02:52:09;;;;;;;13.23;10.52;;;11.90;99.90;;;;;;5094487;28;20032;-78
2022/06/21 02:54:56;;;;;;;16.50;11.20;;;12.00;99.90;;;;;;5094399;28;20016;-78
2022/06/21 02:57:40;;;;;;;15.32;11.35;;;11.90;99.90;;;;;;5094823;28;20063;-78
2022/06/21 03:00:12;;;;;;;14.27;11.13;;;12.00;99.90;;;;;;5094437;28;20038;-78
2022/06/21 03:02:38;;;;;;;14.68;9.88;;;12.00;99.90;;;;;;5095027;28;20047;-79
2022/06/21 03:05:10;;;;;;;13.45;10.13;;;11.90;99.90;;;;;;5093917;28;20038;-78
2022/06/21 03:07:41;;;;;;;13.15;9.13;;;11.90;99.90;;;;;;5095125;28;20024;-78
2022/06/21 03:10:16;;;;;;;13.60;9.70;;;11.90;99.90;;;;;;5093974;28;20028;-78
2022/06/21 03:12:42;;;;;;;19.80;10.02;;;11.90;99.90;;;;;;5092601;28;20029;-79
2022/06/21 03:15:11;;;;;;;12.40;10.07;;;11.80;99.90;;;;;;5093542;28;20028;-78
2022/06/21 03:17:42;;;;;;;12.70;10.85;;;11.80;99.90;;;;;;5093411;28;20056;-78
2022/06/21 03:20:14;;;;;;;19.20;11.60;;;11.80;99.90;;;;;;5092789;28;20032;-76
2022/06/21 03:22:41;;;;;;;13.52;10.50;;;11.80;99.90;;;;;;5093437;28;20055;-78
2022/06/21 03:25:17;;;;;;;10.73;9.60;;;11.80;99.90;;;;;;5093293;28;20162;-77
2022/06/21 03:27:52;;;;;;;13.13;9.98;;;11.80;99.90;;;;;;5092242;28;20062;-77
2022/06/21 03:30:21;;;;;;;13.77;9.93;;;11.80;99.90;;;;;;5092896;28;20387;-77
2022/06/21 03:32:49;;;;;;;16.50;10.55;;;11.70;99.90;;;;;;5093592;28;20103;-77
2022/06/21 03:35:15;;;;;;;14.70;9.80;;;11.70;99.90;;;;;;5093290;28;20383;-78
2022/06/21 03:37:42;;;;;;;15.68;10.20;;;11.70;99.90;;;;;;5093255;28;20042;-78
2022/06/21 03:42:57;;;;;;;17.90;9.88;;;11.80;99.90;;;;;;5093460;28;20545;-78
2022/06/21 03:45:29;;;;;;;13.48;9.65;;;11.70;99.90;;;;;;5094808;28;20394;-79
2022/06/21 03:48:21;;;;;;;12.68;9.38;;;11.70;99.90;;;;;;5093461;28;20028;-78
2022/06/21 03:50:58;;;;;;;14.52;9.85;;;11.80;99.90;;;;;;5055657;28;20481;-79
2022/06/21 03:53:33;;;;;;;15.50;10.52;;;11.80;99.90;;;;;;5093877;28;20032;-80
2022/06/21 03:56:37;;;;;;;11.23;9.35;;;11.80;99.90;;;;;;5094743;28;20039;-78
2022/06/21 03:59:14;;;;;;;14.32;9.45;;;11.80;99.90;;;;;;5011719;28;20038;-77
2022/06/21 04:01:56;;;;;;;10.80;8.60;;;11.90;99.90;;;;;;5084200;28;20059;-78
2022/06/21 04:04:31;;;;;;;11.88;9.40;;;11.90;99.90;;;;;;5100632;28;20016;-77
2022/06/21 04:07:02;;;;;;;16.73;9.10;;;11.90;99.90;;;;;;5093193;28;20475;-78
2022/06/21 04:09:28;;;;;;;11.30;9.43;;;11.90;99.90;;;;;;5093202;28;20082;-77
2022/06/21 04:12:11;;;;;;;15.18;9.80;;;11.90;99.90;;;;;;5093479;28;20024;-79
2022/06/21 04:14:58;;;;;;;12.25;10.00;;;12.00;99.90;;;;;;5098021;28;20030;-77
2022/06/21 04:17:36;;;;;;;12.02;9.30;;;12.00;99.90;;;;;;5098847;28;20103;-77
2022/06/21 04:20:12;;;;;;;16.15;9.55;;;12.00;99.90;;;;;;5096998;28;20468;-77
2022/06/21 04:22:50;;;;;;;17.15;9.32;;;12.00;99.90;;;;;;5096196;28;20059;-78
2022/06/21 04:25:29;;;;;;;9.75;8.88;;;12.00;99.90;;;;;;5096336;28;20082;-79
2022/06/21 04:28:10;;;;;;;17.00;9.48;;;12.00;99.90;;;;;;5096006;28;20094;-78
2022/06/21 04:31:07;;;;;;;17.52;9.85;;;11.90;99.90;;;;;;5095700;28;20020;-77
2022/06/21 04:33:45;;;;;;;17.27;9.43;;;12.00;99.90;;;;;;5095886;28;20036;-78
2022/06/21 04:36:35;;;;;;;11.05;9.38;;;12.10;99.90;;;;;;5096601;28;20114;-78
2022/06/21 04:39:19;;;;;;;11.68;8.80;;;12.10;99.90;;;;;;5096474;28;20035;-77
2022/06/21 04:41:59;;;;;;;12.80;8.50;;;12.10;99.90;;;;;;5096139;28;20016;-78
2022/06/21 04:44:39;;;;;;;12.77;8.25;;;12.10;99.90;;;;;;5095724;28;20446;-78
2022/06/21 04:47:14;;;;;;;10.82;8.35;;;12.20;99.90;;;;;;5096414;28;20472;-77
2022/06/21 04:49:48;;;;;;;10.88;9.13;;;12.20;99.90;;;;;;5095997;28;20024;-78
2022/06/21 04:52:29;;;;;;;12.07;8.70;;;12.30;99.90;;;;;;5095506;28;20043;-77
2022/06/21 04:54:56;;;;;;;17.25;9.15;;;12.30;99.90;;;;;;5095837;28;20032;-78
2022/06/21 04:57:25;;;;;;;11.50;8.77;;;12.50;99.90;;;;;;5099968;28;20365;-79
2022/06/21 05:00:13;;;;;;;10.65;8.85;;;12.50;99.90;;;;;;5099452;28;20499;-78
2022/06/21 05:02:46;;;;;;;15.13;8.35;;;12.60;99.90;;;;;;5095850;28;20399;-78
2022/06/21 05:05:44;;;;;;;12.68;8.32;;;12.70;99.90;;;;;;5095088;28;20050;-77
2022/06/21 05:08:17;;;;;;;14.02;8.43;;;12.80;99.90;;;;;;5092761;28;20108;-78
2022/06/21 05:10:45;;;;;;;17.83;8.82;;;12.90;99.90;;;;;;5096077;28;20039;-78
2022/06/21 05:13:26;;;;;;;16.25;8.02;;;12.90;99.90;;;;;;5097280;28;20028;-79
2022/06/21 05:15:52;;;;;;;;;;;13.10;99.90;;;;;;5096881;28;20380;-77
2022/06/21 05:18:24;;;;;;;9.88;6.57;;;13.10;99.90;;;;;;5096123;28;19904;-79
2022/06/21 05:20:55;;;;;;;10.77;6.68;;;13.20;99.90;;;;;;5096062;28;20381;-78
2022/06/21 05:23:22;;;;;;;13.70;6.53;;;13.30;99.90;;;;;;5096584;28;20040;-80
2022/06/21 05:25:49;;;;;;;13.27;7.15;;;13.30;99.90;;;;;;5096793;28;20032;-78
2022/06/21 05:28:37;;;;;;;12.02;7.38;;;13.40;99.90;;;;;;5095795;28;20032;-77
2022/06/21 05:31:10;;;;;;;18.50;7.85;;;13.40;99.90;;;;;;5096121;28;20028;-79
2022/06/21 05:33:41;;;;;;;8.57;6.15;;;13.50;99.90;;;;;;5095687;28;20028;-77
2022/06/21 05:36:12;;;;;;;8.75;6.10;;;13.50;99.90;;;;;;5097085;28;20020;-79
2022/06/21 05:38:49;;;;;;;11.55;5.68;;;13.60;99.90;;;;;;5096850;28;20025;-78
2022/06/21 05:41:30;;;;;;;8.13;6.05;;;13.60;99.90;;;;;;5095435;28;20383;-79
2022/06/21 05:44:00;;;;;;;8.10;6.07;;;13.70;99.90;;;;;;5096420;28;20047;-77
2022/06/21 05:46:29;;;;;;;10.23;5.77;;;13.70;99.90;;;;;;5098431;28;20043;-76
2022/06/21 05:48:56;;;;;;;12.35;6.05;;;13.80;99.90;;;;;;5096660;28;20262;-78
2022/06/21 05:51:27;;;;;;;9.05;5.95;;;13.80;99.90;;;;;;5095534;28;20042;-78
2022/06/21 05:54:05;;;;;;;11.52;5.50;;;13.90;99.90;;;;;;5095549;28;20026;-79
2022/06/21 05:56:36;;;;;;;12.55;5.05;;;13.90;99.90;;;;;;5094809;28;20020;-79
2022/06/21 05:59:07;;;;;;;9.13;5.53;;;14.00;99.90;;;;;;5094892;28;20025;-79
2022/06/21 06:01:41;;;;;;;10.07;5.15;;;14.00;99.90;;;;;;5093857;28;20051;-79
2022/06/21 06:04:28;;;;;;;14.68;5.93;;;14.10;99.90;;;;;;5094380;28;20028;-78
2022/06/21 06:06:57;;;;;;;9.13;4.88;;;14.20;99.90;;;;;;5094584;28;20421;-78
2022/06/21 06:09:30;;;;;;;8.77;5.50;;;14.20;99.90;;;;;;5093470;28;20020;-79
2022/06/21 06:12:03;;;;;;;11.55;5.68;;;14.20;99.90;;;;;;5093788;28;20078;-78
2022/06/21 06:14:53;;;;;;;6.18;4.47;;;14.30;99.90;;;;;;5093789;28;20040;-79
2022/06/21 06:17:38;;;;;;;6.47;5.18;;;14.30;99.90;;;;;;5093256;28;20031;-77
2022/06/21 06:20:18;;;;;;;10.63;4.75;;;14.40;99.90;;;;;;5094736;28;20056;-77
2022/06/21 06:22:57;;;;;;;8.30;4.78;;;14.50;99.90;;;;;;5093539;28;20044;-77
2022/06/21 06:25:34;;;;;;;9.73;4.65;;;14.50;99.90;;;;;;5094308;28;20036;-78
2022/06/21 06:28:16;;;;;;;7.93;4.30;;;14.60;99.90;;;;;;5095199;28;20028;-78
2022/06/21 06:31:21;;;;;;;6.03;4.32;;;14.60;99.90;;;;;;5094118;28;20076;-79
2022/06/21 06:33:53;;;;;;;7.35;4.25;;;14.60;99.90;;;;;;5063311;28;20036;-79
2022/06/21 06:36:27;;;;;;;11.25;5.25;;;14.60;99.90;;;;;;5094596;28;20024;-78
2022/06/21 06:38:53;;;;;;;7.72;4.40;;;14.70;99.90;;;;;;5100569;28;20085;-78
2022/06/21 06:41:31;;;;;;;8.10;4.53;;;14.80;99.90;;;;;;5097457;28;20387;-78
2022/06/21 06:44:01;;;;;;;8.05;4.65;;;14.90;99.90;;;;;;5094266;28;20059;-76
2022/06/21 06:46:32;;;;;;;12.13;5.13;;;15.00;99.90;;;;;;5095600;28;20031;-77
2022/06/21 06:49:18;;;;;;;11.77;4.25;;;15.00;99.90;;;;;;5101397;28;20031;-77
2022/06/21 06:52:09;;;;;;;7.82;4.30;;;15.00;99.90;;;;;;5108766;28;20024;-76
2022/06/21 06:54:34;;;;;;;;;;;15.10;99.90;;;;;;5096561;28;20054;-78
2022/06/21 06:57:05;;;;;;;10.93;4.97;;;15.10;99.90;;;;;;5094672;28;19908;-77
2022/06/21 06:59:31;;;;;;;8.95;4.63;;;15.20;99.90;;;;;;5093904;28;20105;-77
2022/06/21 07:02:02;;;;;;;8.25;4.60;;;15.30;99.90;;;;;;5094288;28;20492;-78
2022/06/21 07:04:34;;;;;;;8.60;4.22;;;15.50;99.90;;;;;;5104674;28;20024;-78
2022/06/21 07:07:06;;;;;;;8.57;4.30;;;15.60;99.90;;;;;;5097951;28;20036;-77
2022/06/21 07:09:46;;;;;;;7.95;3.83;;;15.80;99.90;;;;;;5095851;28;20035;-78
2022/06/21 07:12:17;;;;;;;7.80;4.60;;;15.90;99.90;;;;;;5096083;28;20060;-78
2022/06/21 07:14:43;;;;;;;7.72;4.47;;;16.10;99.90;;;;;;5100530;28;20029;-78
2022/06/21 07:17:18;;;;;;;8.55;5.13;;;16.20;99.90;;;;;;5098937;28;20484;-76
2022/06/21 07:19:45;;;;;;;8.05;5.13;;;16.40;99.90;;;;;;5100659;28;20046;-78
2022/06/21 07:22:22;;;;;;;10.18;5.10;;;16.60;99.90;;;;;;5097809;28;20031;-77
2022/06/21 07:25:13;;;;;;;12.13;5.28;;;16.80;99.90;;;;;;5095756;28;20039;-77
2022/06/21 07:27:42;;;;;;;8.82;4.10;;;16.80;99.90;;;;;;5094418;28;20025;-78
2022/06/21 07:30:10;;;;;;;8.52;4.63;;;16.90;99.90;;;;;;5099560;28;20020;-77
2022/06/21 07:32:48;;;;;;;5.15;4.05;;;16.80;99.90;;;;;;5095951;28;20024;-77
2022/06/21 07:35:39;;;;;;;6.18;3.97;;;16.80;99.90;;;;;;5098095;28;20476;-77
2022/06/21 07:38:17;;;;;;;11.02;4.43;;;16.80;99.90;;;;;;5100242;28;20048;-79
2022/06/21 07:40:49;;;;;;;6.30;4.38;;;16.80;99.90;;;;;;5097448;28;20064;-78
2022/06/21 07:43:27;;;;;;;8.45;4.47;;;16.70;99.90;;;;;;5096345;28;20100;-78
2022/06/21 07:45:58;;;;;;;5.25;4.45;;;16.60;99.90;;;;;;5096252;28;20430;-77
2022/06/21 07:48:49;;;;;;;9.23;5.13;;;16.70;99.90;;;;;;5096919;28;20024;-78
2022/06/21 07:51:39;;;;;;;8.90;4.50;;;16.70;99.90;;;;;;5098326;28;20032;-80
2022/06/21 07:54:19;;;;;;;6.82;4.28;;;16.70;99.90;;;;;;5097505;28;20016;-78
2022/06/21 07:56:50;;;;;;;7.00;4.15;;;16.70;99.90;;;;;;5098680;28;20040;-77
2022/06/21 07:59:22;;;;;;;6.57;3.75;;;16.70;99.90;;;;;;5097762;28;20040;-78
2022/06/21 08:07:43;;;;;;;6.93;4.43;;;16.80;99.90;;;;;;5098776;28;20525;-79
2022/06/21 08:10:23;;;;;;;10.20;3.83;;;16.90;99.90;;;;;;5098250;28;20103;-78
2022/06/21 08:12:50;;;;;;;5.95;3.72;;;16.90;99.90;;;;;;5098378;28;20020;-77
2022/06/21 08:15:17;;;;;;;6.20;3.75;;;17.00;99.90;;;;;;5097693;28;20028;-79
2022/06/21 08:17:59;;;;;;;6.07;2.95;;;17.00;99.90;;;;;;5099086;28;20020;-77
2022/06/21 08:20:27;;;;;;;6.38;3.00;;;17.00;99.90;;;;;;5099298;28;20024;-78
2022/06/21 08:23:03;;;;;;;6.22;3.30;;;17.10;99.90;;;;;;5100400;28;20028;-77
2022/06/21 08:25:43;;;;;;;4.18;3.10;;;17.20;99.90;;;;;;5101653;28;20032;-78
2022/06/21 08:28:26;;;;;;;8.77;4.20;;;17.30;99.90;;;;;;5101729;28;20432;-78
2022/06/21 08:31:01;;;;;;;5.85;4.05;;;17.50;99.90;;;;;;5100689;28;20024;-78
2022/06/21 08:33:54;;;;;;;9.15;3.70;;;17.60;99.90;;;;;;5098315;28;20103;-78
2022/06/21 08:36:41;;;;;;;6.93;3.10;;;17.70;99.90;;;;;;5096877;28;20031;-81
2022/06/21 08:39:15;;;;;;;5.22;2.97;;;17.80;99.90;;;;;;5097608;28;20012;-80
2022/06/21 08:42:23;;;;;;;3.88;2.97;;;17.90;99.90;;;;;;5097370;28;20028;-80
2022/06/21 08:48:12;;;;;;;5.03;3.33;;;18.10;99.90;;;;;;5097378;28;20119;-79
2022/06/21 08:50:54;;;;;;;5.28;2.85;;;18.10;99.90;;;;;;5095832;28;20460;-80
2022/06/21 08:53:38;;;;;;;6.95;3.83;;;18.20;99.90;;;;;;5095986;28;20202;-78
2022/06/21 08:56:29;;;;;;;5.80;3.47;;;18.20;99.90;;;;;;5096503;28;20465;-79
2022/06/21 08:59:13;;;;;;;4.72;3.33;;;18.20;99.90;;;;;;5097556;28;20032;-79
2022/06/21 09:02:13;;;;;;;5.88;3.92;;;18.30;99.90;;;;;;5097494;28;20104;-78
2022/06/21 09:04:47;;;;;;;5.13;4.30;;;18.40;99.90;;;;;;5064786;28;20035;-78
2022/06/21 09:07:40;;;;;;;8.98;3.53;;;18.50;99.90;;;;;;5097904;28;20027;-78
2022/06/21 09:10:24;;;;;;;7.88;3.30;;;18.70;99.90;;;;;;5101065;28;20472;-78
2022/06/21 09:13:08;;;;;;;4.30;3.42;;;18.80;99.90;;;;;;5105737;28;20020;-79
2022/06/21 09:16:03;;;;;;;5.88;3.30;;;18.90;99.90;;;;;;5100676;28;20021;-77
2022/06/21 09:19:08;;;;;;;5.10;2.58;;;18.90;99.90;;;;;;5097080;28;20028;-78
2022/06/21 09:21:42;;;;;;;4.07;3.28;;;19.10;99.90;;;;;;5103636;28;20032;-78
2022/06/21 09:24:41;;;;;;;5.93;3.50;;;19.00;99.90;;;;;;5097541;28;20093;-77
2022/06/21 09:27:33;;;;;;;4.85;2.80;;;19.00;99.90;;;;;;5113507;28;20047;-78
2022/06/21 09:30:11;;;;;;;3.95;3.15;;;19.00;99.90;;;;;;5099003;28;20032;-78
2022/06/21 09:33:03;;;;;;;6.22;2.60;;;18.90;99.90;;;;;;5098462;28;20390;-79
2022/06/21 09:35:32;;;;;;;3.53;2.70;;;18.80;99.90;;;;;;5097203;28;20044;-79
2022/06/21 09:38:22;;;;;;;4.70;2.70;;;18.90;99.90;;;;;;5097484;28;20087;-77
2022/06/21 09:41:19;;;;;;;12.48;3.35;;;18.70;99.90;;;;;;5096765;28;20021;-77
2022/06/21 09:44:15;;;;;;;4.97;3.45;;;18.70;99.90;;;;;;5069598;28;20028;-76
2022/06/21 09:47:09;;;;;;;4.18;2.83;;;18.80;99.90;;;;;;5080375;28;20052;-79
2022/06/21 09:49:51;;;;;;;7.68;4.28;;;18.90;99.90;;;;;;5104773;28;20027;-77
2022/06/21 09:52:31;;;;;;;5.15;3.05;;;19.10;99.90;;;;;;5096846;28;20039;-78
2022/06/21 09:55:20;;;;;;;7.15;2.45;;;19.20;99.90;;;;;;5095856;28;20020;-78
2022/06/21 09:57:50;;;;;;;4.50;2.47;;;19.20;99.90;;;;;;5096424;28;20028;-79
2022/06/21 10:00:40;;;;;;;7.05;4.05;;;19.40;99.90;;;;;;5096229;28;20468;-78
2022/06/21 10:03:39;;;;;;;4.55;3.22;;;19.50;99.70;;;;;;5096322;28;20411;-78
2022/06/21 10:06:30;;;;;;;4.47;3.55;;;19.60;99.40;;;;;;5096327;28;20502;-78
2022/06/21 10:09:05;;;;;;;6.70;3.72;;;19.70;98.90;;;;;;5095954;28;20096;-78
2022/06/21 10:11:50;;;;;;;3.95;2.90;;;19.90;98.50;;;;;;5096402;28;20071;-77
2022/06/21 10:14:18;;;;;;;4.45;2.67;;;19.90;99.00;;;;;;5095651;28;20073;-77
2022/06/21 10:16:59;;;;;;;6.00;4.28;;;20.10;99.00;;;;;;5096551;28;20074;-78
2022/06/21 10:19:47;;;;;;;5.95;3.53;;;20.20;97.90;;;;;;5096573;28;20030;-78
2022/06/21 10:22:49;;;;;;;6.50;3.20;;;20.20;98.30;;;;;;5095267;28;20104;-78
2022/06/21 10:25:53;;;;;;;5.18;2.95;;;20.40;96.60;;;;;;5097879;28;20073;-78
2022/06/21 10:28:39;;;;;;;4.97;2.17;;;20.40;96.00;;;;;;5087301;28;20086;-79
2022/06/21 10:31:21;;;;;;;4.95;3.80;;;20.40;95.60;;;;;;5096564;28;20035;-79
2022/06/21 10:34:17;;;;;;;4.88;3.00;;;20.40;96.30;;;;;;5096976;28;20077;-79
2022/06/21 10:37:12;;;;;;;7.15;3.50;;;20.60;96.60;;;;;;5095323;28;20024;-77
2022/06/21 10:39:53;;;;;;;7.82;3.92;;;20.60;96.40;;;;;;5096182;28;20021;-78
2022/06/21 10:42:46;;;;;;;5.28;3.70;;;20.70;97.00;;;;;;5096906;28;20047;-77
2022/06/21 10:45:35;;;;;;;6.53;3.92;;;20.80;97.40;;;;;;5096426;28;20079;-78
2022/06/21 10:48:25;;;;;;;6.30;4.00;;;21.00;97.70;;;;;;5096293;28;20040;-78
2022/06/21 10:51:28;;;;;;;5.22;3.97;;;20.90;95.70;;;;;;5096885;28;20039;-77
2022/06/21 10:54:06;;;;;;;4.13;2.53;;;20.70;95.50;;;;;;5095082;28;20032;-78
2022/06/21 11:02:56;;;;;;;2.28;2.15;;;20.50;95.20;;;;;;5094426;28;20407;-78
2022/06/21 11:05:39;;;;;;;;;;;20.50;93.00;;;;;;5094325;28;20044;-78
2022/06/21 11:08:27;;;;;;;3.72;2.10;;;20.60;92.90;;;;;;5094394;28;19904;-78
2022/06/21 11:10:57;;;;;;;5.63;3.22;;;20.60;93.80;;;;;;5096109;28;20426;-77
2022/06/21 11:13:47;;;;;;;6.53;3.70;;;20.70;93.40;;;;;;5098524;28;20023;-77
2022/06/21 11:16:35;;;;;;;3.65;3.30;;;20.70;93.40;;;;;;5097723;28;20472;-79
2022/06/21 11:19:24;;;;;;;7.05;4.85;;;20.90;93.70;;;;;;5098413;28;20119;-79
2022/06/21 11:21:49;;;;;;;4.25;2.63;;;20.80;93.80;;;;;;5099121;28;20039;-77
2022/06/21 11:24:26;;;;;;;4.90;3.25;;;20.90;94.40;;;;;;5101115;28;20019;-79
2022/06/21 11:27:27;;;;;;;6.22;4.32;;;21.10;93.40;;;;;;5100286;28;20361;-77
2022/06/21 11:30:13;;;;;;;5.47;3.08;;;21.20;92.80;;;;;;5102123;28;20036;-78
2022/06/21 11:32:55;;;;;;;3.42;2.88;;;21.50;93.20;;;;;;5101864;28;20027;-78
2022/06/21 11:35:45;;;;;;;4.95;2.90;;;21.60;92.60;;;;;;5102165;28;20024;-77
2022/06/21 11:38:22;;;;;;;3.25;2.90;;;21.80;92.30;;;;;;5101368;28;20028;-78
2022/06/21 11:42:03;;;;;;;3.60;2.88;;;21.90;91.70;;;;;;5101127;28;20106;-78
2022/06/21 11:44:23;;;;;;;5.75;3.60;;;22.00;91.00;;;;;;5100954;28;20062;-77
2022/06/21 11:46:58;;;;;;;4.18;3.58;;;22.10;91.70;;;;;;5101533;28;20039;-78
2022/06/21 11:49:31;;;;;;;3.40;2.88;;;22.20;92.10;;;;;;5106381;28;20062;-78
2022/06/21 11:52:29;;;;;;;4.65;3.58;;;22.30;91.80;;;;;;5104163;28;20111;-77
2022/06/21 11:55:13;;;;;;;7.13;4.22;;;22.40;91.80;;;;;;5063402;28;20035;-78
2022/06/21 11:57:47;;;;;;;4.22;3.42;;;22.40;91.40;;;;;;5100815;28;20472;-78
2022/06/21 12:00:32;;;;;;;6.50;3.70;;;22.30;91.60;;;;;;5099588;28;20020;-77
2022/06/21 12:03:00;;;;;;;6.38;3.00;;;22.40;92.00;;;;;;5103178;28;20036;-79
2022/06/21 12:05:48;;;;;;;3.05;2.22;;;22.40;92.10;;;;;;5101478;28;20032;-78
2022/06/21 12:08:21;;;;;;;6.53;3.50;;;22.50;92.10;;;;;;5099382;28;20453;-78
2022/06/21 12:11:03;;;;;;;4.38;3.25;;;22.60;91.80;;;;;;5100077;28;20032;-79
2022/06/21 12:13:29;;;;;;;8.20;3.13;;;22.70;91.90;;;;;;5101851;28;20024;-77
2022/06/21 12:16:25;;;;;;;4.93;2.63;;;22.90;92.00;;;;;;5100381;28;20021;-78
2022/06/21 12:18:59;;;;;;;3.72;2.30;;;23.00;91.60;;;;;;5099446;28;20028;-77
2022/06/21 12:21:29;;;;;;;4.47;1.80;;;23.10;91.40;;;;;;5098432;28;20056;-77
2022/06/21 12:23:58;;;;;;;5.05;2.00;;;23.30;91.40;;;;;;5098689;28;20027;-78
2022/06/21 12:26:27;;;;;;;3.70;2.30;;;23.50;90.90;;;;;;5098939;28;20437;-79
2022/06/21 12:28:57;;;;;;;8.75;2.78;;;23.50;90.50;;;;;;5097908;28;20101;-78
2022/06/21 12:31:27;;;;;;;4.20;3.22;;;23.50;88.00;;;;;;5099339;28;20084;-80
2022/06/21 12:33:55;;;;;;;;;;;23.40;86.30;;;;;;5098977;28;20028;-77
2022/06/21 12:36:43;;;;;;;6.25;3.22;;;23.20;87.40;;;;;;5097794;28;19947;-78
2022/06/21 12:39:20;;;;;;;4.65;2.40;;;23.10;86.70;;;;;;5099820;28;20028;-77
2022/06/21 12:41:56;;;;;;;3.53;2.30;;;23.00;86.40;;;;;;5099968;28;20028;-79
2022/06/21 12:45:02;;;;;;;7.88;3.00;;;22.90;87.60;;;;;;5098960;28;20058;-78
2022/06/21 12:47:46;;;;;;;3.17;2.13;;;23.00;87.20;;;;;;5016484;28;20088;-78
2022/06/21 12:50:21;;;;;;;3.25;2.25;;;23.20;88.10;;;;;;5092035;28;20032;-78
2022/06/21 12:53:08;;;;;;;8.52;2.88;;;23.50;87.30;;;;;;5099593;28;20111;-77
2022/06/21 12:56:01;;;;;;;6.25;3.40;;;23.70;87.20;;;;;;5099522;28;20025;-77
2022/06/21 12:58:36;;;;;;;2.95;2.63;;;23.90;85.80;;;;;;5099972;28;20012;-78
2022/06/21 13:01:09;;;;;;;4.97;2.50;;;24.10;86.70;;;;;;5102746;28;20113;-77
2022/06/21 13:03:57;;;;;;;6.40;2.28;;;24.20;85.60;;;;;;5100604;28;20031;-78
2022/06/21 13:06:42;;;;;;;4.78;2.42;;;24.40;86.30;;;;;;5101847;28;20097;-77
2022/06/21 13:09:25;;;;;;;4.28;2.67;;;24.60;85.30;;;;;;5102508;28;20027;-77
2022/06/21 13:11:57;;;;;;;3.00;2.35;;;24.80;84.90;;;;;;5102760;28;20039;-77
2022/06/21 13:15:14;;;;;;;6.97;2.53;;;24.90;85.10;;;;;;5106026;28;20024;-78
2022/06/21 13:18:09;;;;;;;3.63;2.63;;;25.10;84.00;;;;;;5054311;28;20387;-80
2022/06/21 13:20:46;;;;;;;3.63;2.63;;;25.30;82.40;;;;;;5098810;28;20024;-78
2022/06/21 13:23:33;;;;;;;3.75;2.20;;;25.40;82.80;;;;;;5096851;28;20016;-79
2022/06/21 13:26:33;;;;;;;7.45;2.63;;;25.40;83.00;;;;;;5098928;28;20381;-77
2022/06/21 13:29:18;;;;;;;;;;;25.40;83.30;;;;;;5097739;28;20058;-77
2022/06/21 13:31:53;;;;;;;4.07;2.30;;;25.20;83.10;;;;;;5096134;28;19903;-78
2022/06/21 13:34:45;;;;;;;3.40;2.38;;;25.30;82.70;;;;;;5098151;28;20031;-77
2022/06/21 13:37:45;;;;;;;3.65;2.65;;;25.40;82.30;;;;;;5097713;28;20041;-78
2022/06/21 13:40:20;;;;;;;;;;;25.60;81.50;;;;;;5057271;28;20028;-79
2022/06/21 13:42:59;;;;;;;4.85;2.20;;;25.60;81.20;;;;;;5098964;28;19950;-77
2022/06/21 13:45:30;;;;;;;4.75;2.00;;;25.50;81.90;;;;;;5095913;28;20040;-77
2022/06/21 13:48:05;;;;;;;3.40;2.58;;;25.50;82.10;;;;;;5096490;28;20026;-78
2022/06/21 13:50:55;;;;;;;3.53;2.65;;;25.40;81.20;;;;;;5096823;28;20579;-77
2022/06/21 13:53:35;;;;;;;5.78;2.55;;;25.30;82.00;;;;;;5095479;28;20117;-78
2022/06/21 13:56:06;;;;;;;4.28;2.58;;;25.30;82.70;;;;;;5095736;28;20020;-78
2022/06/21 13:58:45;;;;;;;5.15;3.30;;;25.20;82.60;;;;;;5095534;28;20387;-78